sensor_id;sensor_type;location;lat;lon;timestamp;temperature;humidity
1361;DHT22;674;45.552;-122.600;2024-02-21T00:02:15;10.50;1.00
1361;DHT22;674;45.552;-122.600;2024-02-21T00:04:44;10.50;1.00
1361;DHT22;674;45.552;-122.600;2024-02-21T00:07:13;10.50;1.00
1361;DHT22;674;45.552;-122.600;2024-02-21T00:09:41;10.50;1.00
1361;DHT22;674;45.552;-122.600;2024-02-21T00:12:11;10.40;1.00
1361;DHT22;674;45.552;-122.600;2024-02-21T00:14:41;10.40;1.00
1361;DHT22;674;45.552;-122.600;2024-02-21T00:17:10;10.50;1.00
1361;DHT22;674;45.552;-122.600;2024-02-21T00:19:39;10.50;1.00
1361;DHT22;674;45.552;-122.600;2024-02-21T00:22:07;10.40;1.00
1361;DHT22;674;45.552;-122.600;2024-02-21T00:24:37;10.50;1.00
1361;DHT22;674;45.552;-122.600;2024-02-21T00:27:05;10.50;1.00
1361;DHT22;674;45.552;-122.600;2024-02-21T00:29:34;10.50;1.00
1361;DHT22;674;45.552;-122.600;2024-02-21T00:32:03;10.50;1.00
1361;DHT22;674;45.552;-122.600;2024-02-21T00:34:32;10.60;1.00
1361;DHT22;674;45.552;-122.600;2024-02-21T00:37:00;10.60;1.00
1361;DHT22;674;45.552;-122.600;2024-02-21T00:39:29;10.60;1.00
1361;DHT22;674;45.552;-122.600;2024-02-21T00:41:58;10.70;1.00
1361;DHT22;674;45.552;-122.600;2024-02-21T00:44:26;10.70;1.00
1361;DHT22;674;45.552;-122.600;2024-02-21T00:46:55;10.50;1.00
1361;DHT22;674;45.552;-122.600;2024-02-21T00:49:24;10.40;1.00
1361;DHT22;674;45.552;-122.600;2024-02-21T00:51:52;10.40;1.00
1361;DHT22;674;45.552;-122.600;2024-02-21T00:54:22;10.30;1.00
1361;DHT22;674;45.552;-122.600;2024-02-21T00:56:53;10.20;1.00
1361;DHT22;674;45.552;-122.600;2024-02-21T00:59:21;10.10;1.00
1361;DHT22;674;45.552;-122.600;2024-02-21T01:01:50;10.00;1.00
1361;DHT22;674;45.552;-122.600;2024-02-21T01:04:18;9.90;1.00
1361;DHT22;674;45.552;-122.600;2024-02-21T01:06:47;9.70;1.00
1361;DHT22;674;45.552;-122.600;2024-02-21T01:09:16;9.60;1.00
1361;DHT22;674;45.552;-122.600;2024-02-21T01:11:44;9.60;1.00
1361;DHT22;674;45.552;-122.600;2024-02-21T01:14:13;9.50;1.00
1361;DHT22;674;45.552;-122.600;2024-02-21T01:16:42;9.50;1.00
1361;DHT22;674;45.552;-122.600;2024-02-21T01:19:10;9.50;1.00
1361;DHT22;674;45.552;-122.600;2024-02-21T01:21:39;9.30;1.00
1361;DHT22;674;45.552;-122.600;2024-02-21T01:24:07;9.20;1.00
1361;DHT22;674;45.552;-122.600;2024-02-21T01:26:36;9.10;1.00
1361;DHT22;674;45.552;-122.600;2024-02-21T01:29:04;9.30;1.00
1361;DHT22;674;45.552;-122.600;2024-02-21T01:31:33;9.10;1.00
1361;DHT22;674;45.552;-122.600;2024-02-21T01:34:02;9.00;1.00
1361;DHT22;674;45.552;-122.600;2024-02-21T01:36:30;8.90;1.00
1361;DHT22;674;45.552;-122.600;2024-02-21T01:38:59;8.80;1.00
1361;DHT22;674;45.552;-122.600;2024-02-21T01:41:30;8.90;1.00
1361;DHT22;674;45.552;-122.600;2024-02-21T01:43:59;8.70;1.00
1361;DHT22;674;45.552;-122.600;2024-02-21T01:46:28;8.80;1.00
1361;DHT22;674;45.552;-122.600;2024-02-21T01:48:58;8.70;1.00
1361;DHT22;674;45.552;-122.600;2024-02-21T01:51:28;8.60;1.00
1361;DHT22;674;45.552;-122.600;2024-02-21T01:53:57;8.70;1.00
1361;DHT22;674;45.552;-122.600;2024-02-21T01:56:28;8.80;1.00
1361;DHT22;674;45.552;-122.600;2024-02-21T01:58:56;8.60;1.00
1361;DHT22;674;45.552;-122.600;2024-02-21T02:01:30;8.50;1.00
1361;DHT22;674;45.552;-122.600;2024-02-21T02:04:00;8.50;1.00
1361;DHT22;674;45.552;-122.600;2024-02-21T02:06:29;8.40;1.00
1361;DHT22;674;45.552;-122.600;2024-02-21T02:08:59;8.50;1.00
1361;DHT22;674;45.552;-122.600;2024-02-21T02:11:27;8.50;1.00
1361;DHT22;674;45.552;-122.600;2024-02-21T02:13:56;8.50;1.00
1361;DHT22;674;45.552;-122.600;2024-02-21T02:16:25;8.50;1.00
1361;DHT22;674;45.552;-122.600;2024-02-21T02:18:53;8.50;1.00
1361;DHT22;674;45.552;-122.600;2024-02-21T02:21:38;8.30;1.00
1361;DHT22;674;45.552;-122.600;2024-02-21T02:24:08;8.60;1.00
1361;DHT22;674;45.552;-122.600;2024-02-21T02:26:36;8.60;1.00
1361;DHT22;674;45.552;-122.600;2024-02-21T02:29:05;8.60;1.00
1361;DHT22;674;45.552;-122.600;2024-02-21T02:31:33;8.60;1.00
1361;DHT22;674;45.552;-122.600;2024-02-21T02:34:03;8.60;1.00
1361;DHT22;674;45.552;-122.600;2024-02-21T02:36:33;8.60;1.00
1361;DHT22;674;45.552;-122.600;2024-02-21T02:39:02;8.60;1.00
1361;DHT22;674;45.552;-122.600;2024-02-21T02:41:31;8.80;1.00
1361;DHT22;674;45.552;-122.600;2024-02-21T02:44:02;8.70;1.00
1361;DHT22;674;45.552;-122.600;2024-02-21T02:46:31;8.70;1.00
1361;DHT22;674;45.552;-122.600;2024-02-21T02:49:00;8.70;1.00
1361;DHT22;674;45.552;-122.600;2024-02-21T02:51:29;8.70;1.00
1361;DHT22;674;45.552;-122.600;2024-02-21T02:53:58;8.70;1.00
1361;DHT22;674;45.552;-122.600;2024-02-21T02:56:27;8.90;1.00
1361;DHT22;674;45.552;-122.600;2024-02-21T02:58:55;8.70;1.00
1361;DHT22;674;45.552;-122.600;2024-02-21T03:01:24;8.70;1.00
1361;DHT22;674;45.552;-122.600;2024-02-21T03:03:53;8.80;1.00
1361;DHT22;674;45.552;-122.600;2024-02-21T03:06:22;8.60;1.00
1361;DHT22;674;45.552;-122.600;2024-02-21T03:08:51;8.60;1.00
1361;DHT22;674;45.552;-122.600;2024-02-21T03:11:22;8.60;1.00
1361;DHT22;674;45.552;-122.600;2024-02-21T03:13:57;8.60;1.00
1361;DHT22;674;45.552;-122.600;2024-02-21T03:16:26;8.40;1.00
1361;DHT22;674;45.552;-122.600;2024-02-21T03:18:55;8.60;1.00
1361;DHT22;674;45.552;-122.600;2024-02-21T03:21:23;8.50;1.00
1361;DHT22;674;45.552;-122.600;2024-02-21T03:23:52;8.30;1.00
1361;DHT22;674;45.552;-122.600;2024-02-21T03:26:20;8.40;1.00
1361;DHT22;674;45.552;-122.600;2024-02-21T03:28:49;8.50;1.00
1361;DHT22;674;45.552;-122.600;2024-02-21T03:31:18;8.40;1.00
1361;DHT22;674;45.552;-122.600;2024-02-21T03:33:47;8.50;1.00
1361;DHT22;674;45.552;-122.600;2024-02-21T03:36:15;8.30;1.00
1361;DHT22;674;45.552;-122.600;2024-02-21T03:38:44;8.40;1.00
1361;DHT22;674;45.552;-122.600;2024-02-21T03:41:13;8.20;1.00
1361;DHT22;674;45.552;-122.600;2024-02-21T03:43:41;8.20;1.00
1361;DHT22;674;45.552;-122.600;2024-02-21T03:46:10;8.10;1.00
1361;DHT22;674;45.552;-122.600;2024-02-21T03:48:39;7.90;7.70
1361;DHT22;674;45.552;-122.600;2024-02-21T03:51:08;8.00;6.10
1361;DHT22;674;45.552;-122.600;2024-02-21T03:53:37;7.90;12.20
1361;DHT22;674;45.552;-122.600;2024-02-21T03:56:06;7.90;11.30
1361;DHT22;674;45.552;-122.600;2024-02-21T03:58:35;7.90;9.40
1361;DHT22;674;45.552;-122.600;2024-02-21T04:01:04;7.90;8.90
1361;DHT22;674;45.552;-122.600;2024-02-21T04:03:32;7.80;8.10
1361;DHT22;674;45.552;-122.600;2024-02-21T04:06:01;7.80;9.50
1361;DHT22;674;45.552;-122.600;2024-02-21T04:08:30;7.80;1.40
1361;DHT22;674;45.552;-122.600;2024-02-21T04:10:58;7.80;1.90
1361;DHT22;674;45.552;-122.600;2024-02-21T04:13:27;7.80;1.00
1361;DHT22;674;45.552;-122.600;2024-02-21T04:15:56;7.80;1.00
1361;DHT22;674;45.552;-122.600;2024-02-21T04:18:24;7.60;1.00
1361;DHT22;674;45.552;-122.600;2024-02-21T04:20:53;7.70;1.00
1361;DHT22;674;45.552;-122.600;2024-02-21T04:23:22;7.70;1.00
1361;DHT22;674;45.552;-122.600;2024-02-21T04:25:50;7.60;1.00
1361;DHT22;674;45.552;-122.600;2024-02-21T04:28:18;7.50;1.00
1361;DHT22;674;45.552;-122.600;2024-02-21T04:30:46;7.60;1.00
1361;DHT22;674;45.552;-122.600;2024-02-21T04:33:15;7.60;1.00
1361;DHT22;674;45.552;-122.600;2024-02-21T04:35:43;7.70;1.00
1361;DHT22;674;45.552;-122.600;2024-02-21T04:38:12;7.80;1.00
1361;DHT22;674;45.552;-122.600;2024-02-21T04:40:42;7.80;1.00
1361;DHT22;674;45.552;-122.600;2024-02-21T04:43:10;7.80;1.00
1361;DHT22;674;45.552;-122.600;2024-02-21T04:45:39;7.80;1.00
1361;DHT22;674;45.552;-122.600;2024-02-21T04:48:07;7.90;1.00
1361;DHT22;674;45.552;-122.600;2024-02-21T04:50:36;7.90;1.00
1361;DHT22;674;45.552;-122.600;2024-02-21T04:53:05;7.90;1.00
1361;DHT22;674;45.552;-122.600;2024-02-21T04:55:33;8.00;1.00
1361;DHT22;674;45.552;-122.600;2024-02-21T04:58:03;8.00;5.00
1361;DHT22;674;45.552;-122.600;2024-02-21T05:00:31;8.00;9.20
1361;DHT22;674;45.552;-122.600;2024-02-21T05:03:00;8.10;14.20
1361;DHT22;674;45.552;-122.600;2024-02-21T05:05:28;8.20;15.70
1361;DHT22;674;45.552;-122.600;2024-02-21T05:07:57;8.20;17.80
1361;DHT22;674;45.552;-122.600;2024-02-21T05:10:26;8.30;18.50
1361;DHT22;674;45.552;-122.600;2024-02-21T05:12:55;8.20;20.60
1361;DHT22;674;45.552;-122.600;2024-02-21T05:15:23;8.50;24.80
1361;DHT22;674;45.552;-122.600;2024-02-21T05:17:52;8.30;31.50
1361;DHT22;674;45.552;-122.600;2024-02-21T05:20:20;8.50;34.40
1361;DHT22;674;45.552;-122.600;2024-02-21T05:22:49;8.20;43.70
1361;DHT22;674;45.552;-122.600;2024-02-21T05:25:18;8.40;48.20
1361;DHT22;674;45.552;-122.600;2024-02-21T05:27:46;8.40;67.50
1361;DHT22;674;45.552;-122.600;2024-02-21T05:30:16;8.30;80.40
1361;DHT22;674;45.552;-122.600;2024-02-21T05:32:44;8.40;84.20
1361;DHT22;674;45.552;-122.600;2024-02-21T05:35:13;8.30;89.40
1361;DHT22;674;45.552;-122.600;2024-02-21T05:37:42;8.40;88.30
1361;DHT22;674;45.552;-122.600;2024-02-21T05:40:11;8.40;87.30
1361;DHT22;674;45.552;-122.600;2024-02-21T05:42:41;8.40;92.80
1361;DHT22;674;45.552;-122.600;2024-02-21T05:45:09;8.20;99.90
1361;DHT22;674;45.552;-122.600;2024-02-21T05:47:38;8.20;99.90
1361;DHT22;674;45.552;-122.600;2024-02-21T05:50:07;8.30;99.90
1361;DHT22;674;45.552;-122.600;2024-02-21T05:52:36;8.30;99.90
1361;DHT22;674;45.552;-122.600;2024-02-21T05:55:07;8.20;99.90
1361;DHT22;674;45.552;-122.600;2024-02-21T05:57:37;8.20;99.90
1361;DHT22;674;45.552;-122.600;2024-02-21T06:00:06;7.90;99.90
1361;DHT22;674;45.552;-122.600;2024-02-21T06:02:35;7.90;99.90
1361;DHT22;674;45.552;-122.600;2024-02-21T06:05:03;7.90;99.90
1361;DHT22;674;45.552;-122.600;2024-02-21T06:07:35;7.80;99.90
1361;DHT22;674;45.552;-122.600;2024-02-21T06:10:04;7.80;99.90
1361;DHT22;674;45.552;-122.600;2024-02-21T06:12:33;7.90;99.90
1361;DHT22;674;45.552;-122.600;2024-02-21T06:15:01;8.00;99.90
1361;DHT22;674;45.552;-122.600;2024-02-21T06:17:31;7.70;99.90
1361;DHT22;674;45.552;-122.600;2024-02-21T06:19:59;7.70;99.90
1361;DHT22;674;45.552;-122.600;2024-02-21T06:22:29;7.50;99.90
1361;DHT22;674;45.552;-122.600;2024-02-21T06:24:58;7.60;99.90
1361;DHT22;674;45.552;-122.600;2024-02-21T06:27:27;7.60;99.90
1361;DHT22;674;45.552;-122.600;2024-02-21T06:29:56;7.50;99.90
1361;DHT22;674;45.552;-122.600;2024-02-21T06:32:24;7.50;99.90
1361;DHT22;674;45.552;-122.600;2024-02-21T06:34:53;7.60;99.90
1361;DHT22;674;45.552;-122.600;2024-02-21T06:37:21;7.50;99.90
1361;DHT22;674;45.552;-122.600;2024-02-21T06:39:50;7.50;99.90
1361;DHT22;674;45.552;-122.600;2024-02-21T06:42:19;7.70;99.90
1361;DHT22;674;45.552;-122.600;2024-02-21T06:44:48;7.60;99.90
1361;DHT22;674;45.552;-122.600;2024-02-21T06:47:16;7.50;99.90
1361;DHT22;674;45.552;-122.600;2024-02-21T06:49:49;7.50;99.90
1361;DHT22;674;45.552;-122.600;2024-02-21T06:52:19;7.50;99.90
1361;DHT22;674;45.552;-122.600;2024-02-21T06:54:52;7.50;99.90
1361;DHT22;674;45.552;-122.600;2024-02-21T06:57:20;7.40;99.90
1361;DHT22;674;45.552;-122.600;2024-02-21T06:59:49;7.60;99.90
1361;DHT22;674;45.552;-122.600;2024-02-21T07:02:18;7.40;99.90
1361;DHT22;674;45.552;-122.600;2024-02-21T07:04:46;7.50;99.90
1361;DHT22;674;45.552;-122.600;2024-02-21T07:07:15;7.60;99.90
1361;DHT22;674;45.552;-122.600;2024-02-21T07:09:44;7.40;99.90
1361;DHT22;674;45.552;-122.600;2024-02-21T07:12:14;7.40;99.90
1361;DHT22;674;45.552;-122.600;2024-02-21T07:14:44;7.50;99.90
1361;DHT22;674;45.552;-122.600;2024-02-21T07:17:12;7.20;99.90
1361;DHT22;674;45.552;-122.600;2024-02-21T07:19:41;7.20;99.90
1361;DHT22;674;45.552;-122.600;2024-02-21T07:22:10;7.20;99.90
1361;DHT22;674;45.552;-122.600;2024-02-21T07:24:38;7.10;99.90
1361;DHT22;674;45.552;-122.600;2024-02-21T07:27:07;7.20;99.90
1361;DHT22;674;45.552;-122.600;2024-02-21T07:29:35;7.20;99.90
1361;DHT22;674;45.552;-122.600;2024-02-21T07:32:04;7.30;99.90
1361;DHT22;674;45.552;-122.600;2024-02-21T07:34:33;7.20;99.90
1361;DHT22;674;45.552;-122.600;2024-02-21T07:37:02;7.20;99.90
1361;DHT22;674;45.552;-122.600;2024-02-21T07:39:30;7.20;99.90
1361;DHT22;674;45.552;-122.600;2024-02-21T07:41:59;7.20;99.90
1361;DHT22;674;45.552;-122.600;2024-02-21T07:44:27;7.20;99.90
1361;DHT22;674;45.552;-122.600;2024-02-21T07:46:56;7.30;99.90
1361;DHT22;674;45.552;-122.600;2024-02-21T07:49:25;7.30;99.90
1361;DHT22;674;45.552;-122.600;2024-02-21T07:51:53;7.20;99.90
1361;DHT22;674;45.552;-122.600;2024-02-21T07:54:22;7.20;99.90
1361;DHT22;674;45.552;-122.600;2024-02-21T07:56:51;7.20;99.90
1361;DHT22;674;45.552;-122.600;2024-02-21T07:59:19;7.20;99.90
1361;DHT22;674;45.552;-122.600;2024-02-21T08:01:48;7.20;99.90
1361;DHT22;674;45.552;-122.600;2024-02-21T08:04:17;7.30;99.90
1361;DHT22;674;45.552;-122.600;2024-02-21T08:06:45;7.30;99.90
1361;DHT22;674;45.552;-122.600;2024-02-21T08:09:16;7.20;99.90
1361;DHT22;674;45.552;-122.600;2024-02-21T08:11:45;7.20;99.90
1361;DHT22;674;45.552;-122.600;2024-02-21T08:14:13;7.30;99.90
1361;DHT22;674;45.552;-122.600;2024-02-21T08:16:47;7.20;99.90
1361;DHT22;674;45.552;-122.600;2024-02-21T08:19:16;7.20;99.90
1361;DHT22;674;45.552;-122.600;2024-02-21T08:21:45;7.10;99.90
1361;DHT22;674;45.552;-122.600;2024-02-21T08:24:16;7.20;99.90
1361;DHT22;674;45.552;-122.600;2024-02-21T08:26:45;7.20;99.90
1361;DHT22;674;45.552;-122.600;2024-02-21T08:29:13;7.00;99.90
1361;DHT22;674;45.552;-122.600;2024-02-21T08:31:42;7.20;99.90
1361;DHT22;674;45.552;-122.600;2024-02-21T08:34:11;6.90;99.90
1361;DHT22;674;45.552;-122.600;2024-02-21T08:36:41;7.20;99.90
1361;DHT22;674;45.552;-122.600;2024-02-21T08:39:10;6.90;99.90
1361;DHT22;674;45.552;-122.600;2024-02-21T08:41:39;7.20;99.90
1361;DHT22;674;45.552;-122.600;2024-02-21T08:44:23;7.20;99.90
1361;DHT22;674;45.552;-122.600;2024-02-21T08:46:54;7.00;99.90
1361;DHT22;674;45.552;-122.600;2024-02-21T08:49:24;7.20;99.90
1361;DHT22;674;45.552;-122.600;2024-02-21T08:52:02;6.90;99.90
1361;DHT22;674;45.552;-122.600;2024-02-21T08:54:32;7.20;99.90
1361;DHT22;674;45.552;-122.600;2024-02-21T08:57:03;7.10;99.90
1361;DHT22;674;45.552;-122.600;2024-02-21T08:59:32;7.00;99.90
1361;DHT22;674;45.552;-122.600;2024-02-21T09:02:01;7.10;99.90
1361;DHT22;674;45.552;-122.600;2024-02-21T09:04:31;7.20;99.90
1361;DHT22;674;45.552;-122.600;2024-02-21T09:07:00;7.10;99.90
1361;DHT22;674;45.552;-122.600;2024-02-21T09:09:29;7.30;99.90
1361;DHT22;674;45.552;-122.600;2024-02-21T09:11:58;7.10;99.90
1361;DHT22;674;45.552;-122.600;2024-02-21T09:14:34;7.20;99.90
1361;DHT22;674;45.552;-122.600;2024-02-21T09:17:03;7.20;99.90
1361;DHT22;674;45.552;-122.600;2024-02-21T09:19:31;7.20;99.90
1361;DHT22;674;45.552;-122.600;2024-02-21T09:22:00;7.20;99.90
1361;DHT22;674;45.552;-122.600;2024-02-21T09:24:28;7.10;99.90
1361;DHT22;674;45.552;-122.600;2024-02-21T09:26:57;7.30;99.90
1361;DHT22;674;45.552;-122.600;2024-02-21T09:29:26;7.30;99.90
1361;DHT22;674;45.552;-122.600;2024-02-21T09:31:54;7.30;99.90
1361;DHT22;674;45.552;-122.600;2024-02-21T09:34:23;7.30;99.90
1361;DHT22;674;45.552;-122.600;2024-02-21T09:36:52;7.60;99.90
1361;DHT22;674;45.552;-122.600;2024-02-21T09:39:21;7.30;99.90
1361;DHT22;674;45.552;-122.600;2024-02-21T09:41:53;7.20;99.90
1361;DHT22;674;45.552;-122.600;2024-02-21T09:44:25;7.20;99.90
1361;DHT22;674;45.552;-122.600;2024-02-21T09:47:40;7.20;99.90
1361;DHT22;674;45.552;-122.600;2024-02-21T09:50:07;7.20;99.90
1361;DHT22;674;45.552;-122.600;2024-02-21T09:52:36;7.20;99.90
1361;DHT22;674;45.552;-122.600;2024-02-21T09:55:07;7.20;99.90
1361;DHT22;674;45.552;-122.600;2024-02-21T09:57:39;7.20;99.90
1361;DHT22;674;45.552;-122.600;2024-02-21T10:00:08;7.10;99.90
1361;DHT22;674;45.552;-122.600;2024-02-21T10:02:39;7.10;99.90
1361;DHT22;674;45.552;-122.600;2024-02-21T10:05:08;7.10;99.90
1361;DHT22;674;45.552;-122.600;2024-02-21T10:07:36;7.10;99.90
1361;DHT22;674;45.552;-122.600;2024-02-21T10:10:08;7.20;99.90
1361;DHT22;674;45.552;-122.600;2024-02-21T10:12:36;7.20;99.90
1361;DHT22;674;45.552;-122.600;2024-02-21T10:15:23;7.10;99.90
1361;DHT22;674;45.552;-122.600;2024-02-21T10:18:00;7.20;99.90
1361;DHT22;674;45.552;-122.600;2024-02-21T10:20:29;7.20;99.90
1361;DHT22;674;45.552;-122.600;2024-02-21T10:23:04;7.20;99.90
1361;DHT22;674;45.552;-122.600;2024-02-21T10:25:37;7.20;99.90
1361;DHT22;674;45.552;-122.600;2024-02-21T10:28:13;7.20;99.90
1361;DHT22;674;45.552;-122.600;2024-02-21T10:30:53;7.20;99.90
1361;DHT22;674;45.552;-122.600;2024-02-21T10:33:22;7.10;99.90
1361;DHT22;674;45.552;-122.600;2024-02-21T10:35:53;7.10;99.90
1361;DHT22;674;45.552;-122.600;2024-02-21T10:38:22;7.30;99.90
1361;DHT22;674;45.552;-122.600;2024-02-21T10:40:51;7.20;99.90
1361;DHT22;674;45.552;-122.600;2024-02-21T10:43:21;7.30;99.90
1361;DHT22;674;45.552;-122.600;2024-02-21T10:45:50;7.10;99.90
1361;DHT22;674;45.552;-122.600;2024-02-21T10:48:24;7.20;99.90
1361;DHT22;674;45.552;-122.600;2024-02-21T10:51:37;7.20;99.90
1361;DHT22;674;45.552;-122.600;2024-02-21T10:56:36;7.00;99.90
1361;DHT22;674;45.552;-122.600;2024-02-21T10:59:06;7.20;99.90
1361;DHT22;674;45.552;-122.600;2024-02-21T11:01:35;7.20;99.90
1361;DHT22;674;45.552;-122.600;2024-02-21T11:04:08;7.20;99.90
1361;DHT22;674;45.552;-122.600;2024-02-21T11:06:41;7.20;99.90
1361;DHT22;674;45.552;-122.600;2024-02-21T11:09:11;7.20;99.90
1361;DHT22;674;45.552;-122.600;2024-02-21T11:11:44;7.20;99.90
1361;DHT22;674;45.552;-122.600;2024-02-21T11:14:20;7.20;99.90
1361;DHT22;674;45.552;-122.600;2024-02-21T11:16:49;7.50;99.90
1361;DHT22;674;45.552;-122.600;2024-02-21T11:19:22;7.50;99.90
1361;DHT22;674;45.552;-122.600;2024-02-21T11:21:53;7.40;99.90
1361;DHT22;674;45.552;-122.600;2024-02-21T11:27:21;7.40;99.90
1361;DHT22;674;45.552;-122.600;2024-02-21T11:29:57;7.40;99.90
1361;DHT22;674;45.552;-122.600;2024-02-21T11:32:27;7.60;99.90
1361;DHT22;674;45.552;-122.600;2024-02-21T11:35:03;7.50;99.90
1361;DHT22;674;45.552;-122.600;2024-02-21T11:37:35;7.50;99.90
1361;DHT22;674;45.552;-122.600;2024-02-21T11:40:08;7.40;99.90
1361;DHT22;674;45.552;-122.600;2024-02-21T11:42:39;7.40;99.90
1361;DHT22;674;45.552;-122.600;2024-02-21T11:45:09;7.40;99.90
1361;DHT22;674;45.552;-122.600;2024-02-21T11:47:37;7.40;99.90
1361;DHT22;674;45.552;-122.600;2024-02-21T11:50:10;7.30;99.90
1361;DHT22;674;45.552;-122.600;2024-02-21T11:52:42;7.50;99.90
1361;DHT22;674;45.552;-122.600;2024-02-21T11:55:11;7.40;99.90
1361;DHT22;674;45.552;-122.600;2024-02-21T11:57:39;7.50;99.90
1361;DHT22;674;45.552;-122.600;2024-02-21T12:00:16;7.50;99.90
1361;DHT22;674;45.552;-122.600;2024-02-21T12:02:45;7.50;99.90
1361;DHT22;674;45.552;-122.600;2024-02-21T12:05:14;7.50;99.90
1361;DHT22;674;45.552;-122.600;2024-02-21T12:07:43;7.40;99.90
1361;DHT22;674;45.552;-122.600;2024-02-21T12:10:12;7.40;99.90
1361;DHT22;674;45.552;-122.600;2024-02-21T12:12:41;7.60;99.90
1361;DHT22;674;45.552;-122.600;2024-02-21T12:15:10;7.50;99.90
1361;DHT22;674;45.552;-122.600;2024-02-21T12:17:40;7.40;99.90
1361;DHT22;674;45.552;-122.600;2024-02-21T12:20:11;7.40;99.90
1361;DHT22;674;45.552;-122.600;2024-02-21T12:22:43;7.40;99.90
1361;DHT22;674;45.552;-122.600;2024-02-21T12:25:19;7.40;99.90
1361;DHT22;674;45.552;-122.600;2024-02-21T12:27:48;7.40;99.90
1361;DHT22;674;45.552;-122.600;2024-02-21T12:30:17;7.40;99.90
1361;DHT22;674;45.552;-122.600;2024-02-21T12:32:46;7.40;99.90
1361;DHT22;674;45.552;-122.600;2024-02-21T12:35:16;7.40;99.90
1361;DHT22;674;45.552;-122.600;2024-02-21T12:37:46;7.40;99.90
1361;DHT22;674;45.552;-122.600;2024-02-21T12:40:14;7.40;99.90
1361;DHT22;674;45.552;-122.600;2024-02-21T12:42:43;7.60;99.90
1361;DHT22;674;45.552;-122.600;2024-02-21T12:45:13;7.60;99.90
1361;DHT22;674;45.552;-122.600;2024-02-21T12:47:43;7.40;99.90
1361;DHT22;674;45.552;-122.600;2024-02-21T12:50:12;7.50;99.90
1361;DHT22;674;45.552;-122.600;2024-02-21T12:52:42;7.60;99.90
1361;DHT22;674;45.552;-122.600;2024-02-21T12:55:11;7.30;99.90
1361;DHT22;674;45.552;-122.600;2024-02-21T12:57:41;7.60;99.90
1361;DHT22;674;45.552;-122.600;2024-02-21T13:00:10;7.50;99.90
1361;DHT22;674;45.552;-122.600;2024-02-21T13:02:39;7.30;99.90
1361;DHT22;674;45.552;-122.600;2024-02-21T13:05:07;7.50;99.90
1361;DHT22;674;45.552;-122.600;2024-02-21T13:07:36;7.60;99.90
1361;DHT22;674;45.552;-122.600;2024-02-21T13:10:05;7.30;99.90
1361;DHT22;674;45.552;-122.600;2024-02-21T13:12:34;7.50;99.90
1361;DHT22;674;45.552;-122.600;2024-02-21T13:15:03;7.60;99.90
1361;DHT22;674;45.552;-122.600;2024-02-21T13:17:31;7.50;99.90
1361;DHT22;674;45.552;-122.600;2024-02-21T13:20:01;7.60;99.90
1361;DHT22;674;45.552;-122.600;2024-02-21T13:22:31;7.60;99.90
1361;DHT22;674;45.552;-122.600;2024-02-21T13:25:00;7.60;99.90
1361;DHT22;674;45.552;-122.600;2024-02-21T13:27:29;7.40;99.90
1361;DHT22;674;45.552;-122.600;2024-02-21T13:29:58;7.40;99.90
1361;DHT22;674;45.552;-122.600;2024-02-21T13:32:26;7.40;99.90
1361;DHT22;674;45.552;-122.600;2024-02-21T13:34:55;7.40;99.90
1361;DHT22;674;45.552;-122.600;2024-02-21T13:37:24;7.40;99.90
1361;DHT22;674;45.552;-122.600;2024-02-21T13:39:53;7.40;99.90
1361;DHT22;674;45.552;-122.600;2024-02-21T13:42:21;7.50;99.90
1361;DHT22;674;45.552;-122.600;2024-02-21T13:44:50;7.60;99.90
1361;DHT22;674;45.552;-122.600;2024-02-21T13:47:19;7.50;99.90
1361;DHT22;674;45.552;-122.600;2024-02-21T13:49:49;7.50;99.90
1361;DHT22;674;45.552;-122.600;2024-02-21T13:52:20;7.60;99.90
1361;DHT22;674;45.552;-122.600;2024-02-21T13:54:50;7.50;99.90
1361;DHT22;674;45.552;-122.600;2024-02-21T13:57:19;7.30;99.90
1361;DHT22;674;45.552;-122.600;2024-02-21T13:59:47;7.50;99.90
1361;DHT22;674;45.552;-122.600;2024-02-21T14:02:16;7.40;99.90
1361;DHT22;674;45.552;-122.600;2024-02-21T14:04:44;7.50;99.90
1361;DHT22;674;45.552;-122.600;2024-02-21T14:07:13;7.40;99.90
1361;DHT22;674;45.552;-122.600;2024-02-21T14:09:41;7.40;99.90
1361;DHT22;674;45.552;-122.600;2024-02-21T14:12:10;7.50;99.90
1361;DHT22;674;45.552;-122.600;2024-02-21T14:14:39;7.30;99.90
1361;DHT22;674;45.552;-122.600;2024-02-21T14:17:07;7.50;99.90
1361;DHT22;674;45.552;-122.600;2024-02-21T14:19:36;7.40;99.90
1361;DHT22;674;45.552;-122.600;2024-02-21T14:22:05;7.50;99.90
1361;DHT22;674;45.552;-122.600;2024-02-21T14:24:34;7.50;99.90
1361;DHT22;674;45.552;-122.600;2024-02-21T14:27:02;7.50;99.90
1361;DHT22;674;45.552;-122.600;2024-02-21T14:29:31;7.60;99.90
1361;DHT22;674;45.552;-122.600;2024-02-21T14:32:00;7.60;99.90
1361;DHT22;674;45.552;-122.600;2024-02-21T14:34:28;7.60;99.90
1361;DHT22;674;45.552;-122.600;2024-02-21T14:36:57;7.60;99.90
1361;DHT22;674;45.552;-122.600;2024-02-21T14:39:25;7.60;99.90
1361;DHT22;674;45.552;-122.600;2024-02-21T14:41:54;7.60;99.90
1361;DHT22;674;45.552;-122.600;2024-02-21T14:44:23;7.60;99.90
1361;DHT22;674;45.552;-122.600;2024-02-21T14:46:52;7.60;99.90
1361;DHT22;674;45.552;-122.600;2024-02-21T14:49:20;7.50;99.90
1361;DHT22;674;45.552;-122.600;2024-02-21T14:51:49;7.60;99.90
1361;DHT22;674;45.552;-122.600;2024-02-21T14:54:20;7.50;99.90
1361;DHT22;674;45.552;-122.600;2024-02-21T14:56:49;7.50;99.90
1361;DHT22;674;45.552;-122.600;2024-02-21T14:59:18;7.50;99.90
1361;DHT22;674;45.552;-122.600;2024-02-21T15:01:59;7.60;99.90
1361;DHT22;674;45.552;-122.600;2024-02-21T15:04:28;7.50;99.90
1361;DHT22;674;45.552;-122.600;2024-02-21T15:06:57;7.50;99.90
1361;DHT22;674;45.552;-122.600;2024-02-21T15:09:25;7.50;99.90
1361;DHT22;674;45.552;-122.600;2024-02-21T15:11:54;7.60;99.90
1361;DHT22;674;45.552;-122.600;2024-02-21T15:14:22;7.50;99.90
1361;DHT22;674;45.552;-122.600;2024-02-21T15:16:52;7.60;99.90
1361;DHT22;674;45.552;-122.600;2024-02-21T15:19:21;7.50;99.90
1361;DHT22;674;45.552;-122.600;2024-02-21T15:21:50;7.50;99.90
1361;DHT22;674;45.552;-122.600;2024-02-21T15:24:19;7.50;99.90
1361;DHT22;674;45.552;-122.600;2024-02-21T15:26:48;7.60;99.90
1361;DHT22;674;45.552;-122.600;2024-02-21T15:29:17;7.60;99.90
1361;DHT22;674;45.552;-122.600;2024-02-21T15:31:45;7.70;99.90
1361;DHT22;674;45.552;-122.600;2024-02-21T15:34:14;7.90;99.90
1361;DHT22;674;45.552;-122.600;2024-02-21T15:36:46;7.90;99.90
1361;DHT22;674;45.552;-122.600;2024-02-21T15:39:14;7.70;99.90
1361;DHT22;674;45.552;-122.600;2024-02-21T15:41:43;7.70;99.90
1361;DHT22;674;45.552;-122.600;2024-02-21T15:44:11;7.80;99.90
1361;DHT22;674;45.552;-122.600;2024-02-21T15:46:40;7.80;99.90
1361;DHT22;674;45.552;-122.600;2024-02-21T15:49:10;7.90;99.90
1361;DHT22;674;45.552;-122.600;2024-02-21T15:51:39;7.80;99.90
1361;DHT22;674;45.552;-122.600;2024-02-21T15:54:09;7.90;99.90
1361;DHT22;674;45.552;-122.600;2024-02-21T15:56:37;7.80;99.90
1361;DHT22;674;45.552;-122.600;2024-02-21T15:59:07;8.10;99.90
1361;DHT22;674;45.552;-122.600;2024-02-21T16:01:36;8.10;99.90
1361;DHT22;674;45.552;-122.600;2024-02-21T16:04:07;8.10;99.90
1361;DHT22;674;45.552;-122.600;2024-02-21T16:06:36;8.20;99.90
1361;DHT22;674;45.552;-122.600;2024-02-21T16:09:05;8.30;99.90
1361;DHT22;674;45.552;-122.600;2024-02-21T16:11:35;8.30;99.90